createdAt,value
2019-04-07T00:00:08.946Z,4.17
2019-04-07T00:02:37.285Z,3.27
2019-04-07T00:05:13.000Z,3.33
2019-04-07T00:07:36.603Z,3.30
2019-04-07T00:10:09.918Z,3.33
2019-04-07T00:12:38.298Z,2.90
2019-04-07T00:15:06.979Z,3.75
2019-04-07T00:17:35.385Z,3.45
2019-04-07T00:20:05.448Z,3.70
2019-04-07T00:22:33.728Z,3.50
2019-04-07T00:25:02.585Z,3.42
2019-04-07T00:27:30.873Z,3.02
2019-04-07T00:29:59.897Z,3.33
2019-04-07T00:32:28.444Z,3.17
2019-04-07T00:34:56.891Z,3.77
2019-04-07T00:37:25.090Z,2.85
2019-04-07T00:39:53.334Z,3.20
2019-04-07T00:42:21.530Z,3.00
2019-04-07T00:44:49.740Z,3.27
2019-04-07T00:47:18.562Z,3.33
2019-04-07T00:49:47.533Z,3.22
2019-04-07T00:52:17.451Z,3.20
2019-04-07T00:54:45.908Z,3.30
2019-04-07T00:57:14.216Z,3.20
2019-04-07T00:59:43.119Z,3.00
2019-04-07T01:02:11.334Z,4.17
2019-04-07T01:04:39.682Z,4.53
2019-04-07T01:07:08.146Z,3.75
2019-04-07T01:09:36.374Z,3.85
2019-04-07T01:12:04.982Z,3.83
2019-04-07T01:14:33.627Z,3.50
2019-04-07T01:17:02.413Z,4.05
2019-04-07T01:19:30.751Z,4.20
2019-04-07T01:21:59.065Z,3.42
2019-04-07T01:24:27.715Z,3.95
2019-04-07T01:26:55.952Z,3.35
2019-04-07T01:29:24.498Z,3.00
2019-04-07T01:31:53.305Z,3.22
2019-04-07T01:34:22.454Z,3.60
2019-04-07T01:36:50.739Z,3.30
2019-04-07T01:39:19.435Z,3.25
2019-04-07T01:41:49.583Z,3.10
2019-04-07T01:44:23.351Z,3.00
2019-04-07T01:46:53.437Z,3.00
2019-04-07T01:49:23.807Z,3.77
2019-04-07T01:51:53.817Z,3.02
2019-04-07T01:54:36.207Z,3.10
2019-04-07T01:57:18.447Z,2.85
2019-04-07T01:59:48.361Z,2.50
2019-04-07T02:02:35.399Z,3.17
2019-04-07T02:05:08.246Z,3.00
2019-04-07T02:07:54.523Z,3.02
2019-04-07T02:10:34.079Z,2.77
2019-04-07T02:13:07.411Z,2.95
2019-04-07T02:15:40.600Z,3.15
2019-04-07T02:18:10.513Z,3.17
2019-04-07T02:20:57.828Z,2.60
2019-04-07T02:23:30.606Z,2.80
2019-04-07T02:26:03.606Z,3.40
2019-04-07T02:28:49.566Z,2.87
2019-04-07T02:31:23.440Z,2.47
2019-04-07T02:33:54.437Z,3.02
2019-04-07T02:36:37.654Z,3.30
2019-04-07T02:39:11.232Z,3.00
2019-04-07T02:41:53.679Z,3.00
2019-04-07T02:44:38.959Z,3.30
2019-04-07T02:47:11.601Z,2.72
2019-04-07T02:49:47.571Z,3.33
2019-04-07T02:52:18.475Z,3.30
2019-04-07T02:54:49.650Z,3.33
2019-04-07T02:57:22.363Z,2.92
2019-04-07T03:00:07.767Z,3.10
2019-04-07T03:02:37.845Z,3.00
2019-04-07T03:05:26.650Z,3.00
2019-04-07T03:08:05.769Z,3.10
2019-04-07T03:10:36.608Z,2.70
2019-04-07T03:13:12.827Z,3.05
2019-04-07T03:15:46.217Z,3.87
2019-04-07T03:18:34.492Z,3.60
2019-04-07T03:21:22.426Z,3.50
2019-04-07T03:23:56.430Z,3.40
2019-04-07T03:26:26.534Z,3.50
2019-04-07T03:29:12.734Z,3.37
2019-04-07T03:31:51.024Z,3.08
2019-04-07T03:34:25.860Z,3.77
2019-04-07T03:37:26.235Z,3.90
2019-04-07T03:39:41.078Z,3.98
2019-04-07T03:42:11.019Z,3.37
2019-04-07T03:44:41.120Z,4.55
2019-04-07T03:47:23.499Z,3.95
2019-04-07T03:49:53.477Z,3.60
2019-04-07T03:52:40.493Z,3.67
2019-04-07T03:55:10.499Z,3.77
2019-04-07T03:57:56.978Z,3.52
2019-04-07T04:01:05.230Z,4.17
2019-04-07T04:03:51.913Z,3.05
2019-04-07T04:06:21.858Z,3.67
2019-04-07T04:08:54.907Z,3.27
2019-04-07T04:11:34.267Z,3.95
2019-04-07T04:14:12.037Z,3.50
2019-04-07T04:16:42.417Z,3.92
2019-04-07T04:19:11.082Z,3.60
2019-04-07T04:21:40.304Z,3.75
2019-04-07T04:24:08.683Z,4.12
2019-04-07T04:26:37.889Z,3.95
2019-04-07T04:29:06.198Z,3.77
2019-04-07T04:31:34.436Z,4.45
2019-04-07T04:34:03.360Z,4.55
2019-04-07T04:36:33.668Z,4.22
2019-04-07T04:39:01.862Z,4.08
2019-04-07T04:41:30.080Z,4.50
2019-04-07T04:43:58.301Z,4.75
2019-04-07T04:46:26.503Z,5.08
2019-04-07T04:48:55.495Z,4.40
2019-04-07T04:51:24.151Z,4.67
2019-04-07T04:53:52.360Z,4.45
2019-04-07T04:56:20.567Z,4.62
2019-04-07T04:58:49.709Z,4.55
2019-04-07T05:01:18.908Z,3.95
2019-04-07T05:03:47.480Z,4.45
2019-04-07T05:06:15.776Z,4.37
2019-04-07T05:08:44.407Z,4.30
2019-04-07T05:11:12.677Z,4.33
2019-04-07T05:13:41.196Z,4.35
2019-04-07T05:16:09.491Z,4.40
2019-04-07T05:18:38.255Z,4.65
2019-04-07T05:21:06.635Z,5.15
2019-04-07T05:23:37.020Z,6.05
2019-04-07T05:26:05.764Z,6.40
2019-04-07T05:28:36.867Z,5.58
2019-04-07T05:31:04.455Z,5.12
2019-04-07T05:33:32.719Z,5.28
2019-04-07T05:36:00.934Z,4.97
2019-04-07T05:38:29.159Z,5.30
2019-04-07T05:40:57.516Z,5.60
2019-04-07T05:43:26.173Z,4.90
2019-04-07T05:45:56.268Z,5.15
2019-04-07T05:48:24.938Z,4.90
2019-04-07T05:50:53.836Z,5.55
2019-04-07T05:53:22.095Z,5.42
2019-04-07T05:55:53.762Z,5.70
2019-04-07T05:58:20.293Z,5.78
2019-04-07T06:00:49.432Z,5.50
2019-04-07T06:03:18.721Z,4.95
2019-04-07T06:05:51.196Z,5.78
2019-04-07T06:08:27.756Z,6.42
2019-04-07T06:10:49.074Z,6.03
2019-04-07T06:13:17.644Z,6.05
2019-04-07T06:15:46.739Z,6.53
2019-04-07T06:18:15.039Z,6.05
2019-04-07T06:20:44.843Z,6.55
2019-04-07T06:23:13.813Z,6.47
2019-04-07T06:25:43.705Z,7.03
2019-04-07T06:28:16.029Z,6.33
2019-04-07T06:30:42.798Z,6.58
2019-04-07T06:33:13.275Z,7.05
2019-04-07T06:35:44.978Z,7.05
2019-04-07T06:38:12.301Z,7.05
2019-04-07T06:40:40.557Z,6.45
2019-04-07T06:43:09.336Z,7.00
2019-04-07T06:45:42.292Z,6.50
2019-04-07T06:48:13.363Z,6.43
2019-04-07T06:50:56.019Z,7.12
2019-04-07T06:53:30.170Z,7.53
2019-04-07T06:56:09.053Z,6.78
2019-04-07T06:58:57.007Z,7.03
2019-04-07T07:01:35.698Z,7.53
2019-04-07T07:04:21.141Z,6.95
2019-04-07T07:07:19.959Z,7.85
2019-04-07T07:09:50.185Z,6.37
2019-04-07T07:12:33.553Z,7.53
2019-04-07T07:15:03.243Z,6.78
2019-04-07T07:17:52.266Z,6.60
2019-04-07T07:20:36.122Z,7.17
2019-04-07T07:23:10.159Z,5.80
2019-04-07T07:25:38.684Z,5.83
2019-04-07T07:28:07.589Z,6.60
2019-04-07T07:30:37.138Z,5.97
2019-04-07T07:33:09.670Z,6.17
2019-04-07T07:35:36.377Z,5.95
2019-04-07T07:38:04.926Z,5.60
2019-04-07T07:40:34.955Z,5.10
2019-04-07T07:43:03.527Z,6.05
2019-04-07T07:45:32.928Z,6.58
2019-04-07T07:48:02.074Z,6.67
2019-04-07T07:50:30.380Z,5.75
2019-04-07T07:52:58.698Z,6.12
2019-04-07T07:55:27.419Z,5.20
2019-04-07T07:57:58.922Z,5.25
2019-04-07T08:00:25.768Z,6.83
2019-04-07T08:02:54.649Z,6.62
2019-04-07T08:05:24.779Z,9.25
2019-04-07T08:07:53.963Z,6.28
2019-04-07T08:10:25.071Z,6.60
2019-04-07T08:12:53.147Z,5.72
2019-04-07T08:15:25.471Z,5.25
2019-04-07T08:17:52.108Z,4.97
2019-04-07T08:20:20.393Z,5.05
2019-04-07T08:22:49.260Z,5.58
2019-04-07T08:25:20.366Z,4.85
2019-04-07T08:27:47.694Z,6.62
2019-04-07T08:30:16.314Z,6.67
2019-04-07T08:32:45.325Z,5.97
2019-04-07T08:35:14.329Z,6.58
2019-04-07T08:37:45.789Z,6.42
2019-04-07T08:40:12.997Z,5.85
2019-04-07T08:42:41.841Z,6.40
2019-04-07T08:45:10.142Z,6.90
2019-04-07T08:47:39.106Z,5.78
2019-04-07T08:50:09.190Z,5.83
2019-04-07T08:52:40.707Z,5.62
2019-04-07T08:55:07.654Z,6.92
2019-04-07T08:57:36.979Z,6.47
2019-04-07T09:00:13.254Z,5.53
2019-04-07T09:05:06.760Z,7.90
2019-04-07T09:07:35.055Z,10.48
2019-04-07T09:10:04.260Z,10.72
2019-04-07T09:12:32.507Z,8.88
2019-04-07T09:15:03.969Z,7.80
2019-04-07T09:17:50.590Z,9.53
2019-04-07T09:20:30.169Z,10.00
2019-04-07T09:23:00.580Z,11.33
2019-04-07T09:25:46.810Z,10.25
2019-04-07T09:28:17.922Z,10.15
2019-04-07T09:30:48.355Z,11.43
2019-04-07T09:33:37.711Z,12.93
2019-04-07T09:36:11.172Z,11.53
2019-04-07T09:39:01.432Z,11.90
2019-04-07T09:41:41.534Z,12.33
2019-04-07T09:44:22.001Z,15.23
2019-04-07T09:47:00.835Z,12.80
2019-04-07T09:49:30.967Z,11.85
2019-04-07T09:52:10.210Z,12.23
2019-04-07T09:54:44.732Z,10.78
2019-04-07T09:57:23.770Z,13.45
2019-04-07T10:00:09.949Z,14.45
2019-04-07T10:02:55.251Z,13.10
2019-04-07T10:05:41.113Z,13.28
2019-04-07T10:08:23.783Z,14.90
2019-04-07T10:11:05.799Z,14.85
2019-04-07T10:13:42.073Z,12.75
2019-04-07T10:16:31.283Z,13.22
2019-04-07T10:19:00.702Z,11.00
2019-04-07T10:21:47.486Z,12.58
2019-04-07T10:24:17.598Z,15.48
2019-04-07T10:27:02.971Z,14.78
2019-04-07T10:29:42.740Z,17.48
2019-04-07T10:32:13.596Z,16.50
2019-04-07T10:34:49.815Z,20.05
2019-04-07T10:37:25.618Z,19.27
2019-04-07T10:40:18.875Z,22.77
2019-04-07T10:42:46.622Z,19.60
2019-04-07T10:45:16.500Z,21.63
2019-04-07T10:47:49.080Z,20.97
2019-04-07T10:50:28.207Z,23.07
2019-04-07T10:53:01.005Z,20.37
2019-04-07T10:55:34.155Z,23.05
2019-04-07T10:58:16.901Z,22.00
2019-04-07T11:01:03.122Z,18.75
2019-04-07T11:03:39.463Z,20.52
2019-04-07T11:06:16.045Z,21.00
2019-04-07T11:08:45.541Z,19.12
2019-04-07T11:11:24.671Z,21.40
2019-04-07T11:14:04.616Z,22.40
2019-04-07T11:16:44.195Z,20.35
2019-04-07T11:19:14.684Z,22.02
2019-04-07T11:21:53.874Z,19.87
2019-04-07T11:24:27.499Z,24.23
2019-04-07T11:27:16.701Z,24.10
2019-04-07T11:29:46.721Z,19.50
2019-04-07T11:32:22.870Z,22.82
2019-04-07T11:34:53.049Z,20.85
2019-04-07T11:37:23.357Z,21.20
2019-04-07T11:39:54.636Z,22.90
2019-04-07T11:42:41.535Z,22.70
2019-04-07T11:45:27.776Z,20.57
2019-04-07T11:47:58.100Z,22.67
2019-04-07T11:50:45.025Z,21.80
2019-04-07T11:53:18.107Z,22.45
2019-04-07T11:55:48.582Z,20.80
2019-04-07T11:58:25.868Z,19.15
2019-04-07T12:00:53.879Z,19.45
2019-04-07T12:03:40.538Z,19.98
2019-04-07T12:06:14.209Z,20.57
2019-04-07T12:09:02.233Z,19.27
2019-04-07T12:11:49.384Z,19.32
2019-04-07T12:14:31.960Z,21.37
2019-04-07T12:17:14.861Z,22.87
2019-04-07T12:19:58.097Z,19.90
2019-04-07T12:22:48.005Z,16.93
2019-04-07T12:25:33.500Z,19.02
2019-04-07T12:28:07.484Z,19.25
2019-04-07T12:30:43.719Z,20.95
2019-04-07T12:33:23.328Z,20.70
2019-04-07T12:35:56.322Z,20.57
2019-04-07T12:38:29.078Z,19.57
2019-04-07T12:41:15.100Z,19.55
2019-04-07T12:43:45.912Z,20.08
2019-04-07T12:46:30.879Z,21.25
2019-04-07T12:49:10.031Z,20.25
2019-04-07T12:51:40.009Z,20.57
2019-04-07T12:54:25.311Z,18.32
2019-04-07T12:56:58.045Z,21.97
2019-04-07T12:59:28.274Z,18.00
2019-04-07T13:02:05.441Z,22.07
2019-04-07T13:04:32.573Z,23.55
2019-04-07T13:07:05.229Z,19.75
2019-04-07T13:09:51.804Z,19.17
2019-04-07T13:12:24.728Z,18.70
2019-04-07T13:14:56.051Z,17.77
2019-04-07T13:17:44.428Z,19.20
2019-04-07T13:20:31.137Z,18.48
2019-04-07T13:23:03.802Z,18.12
2019-04-07T13:25:53.183Z,17.92
2019-04-07T13:28:21.740Z,18.12
2019-04-07T13:30:52.019Z,15.83
2019-04-07T13:33:27.166Z,15.05
2019-04-07T13:36:10.596Z,15.03
2019-04-07T13:38:46.901Z,14.00
2019-04-07T13:41:20.240Z,14.87
2019-04-07T13:44:01.524Z,14.18
2019-04-07T13:46:36.110Z,14.10
2019-04-07T13:49:05.287Z,15.48
2019-04-07T13:51:52.547Z,14.00
2019-04-07T13:54:23.067Z,13.13
2019-04-07T13:57:10.171Z,14.43
2019-04-07T13:59:42.936Z,14.50
2019-04-07T14:02:12.123Z,12.05
2019-04-07T14:04:42.394Z,11.15
2019-04-07T14:07:29.501Z,10.15
2019-04-07T14:10:16.275Z,11.22
2019-04-07T14:13:04.738Z,10.63
2019-04-07T14:15:34.738Z,10.53
2019-04-07T14:18:04.916Z,10.72
2019-04-07T14:20:38.740Z,11.10
2019-04-07T14:23:27.576Z,12.37
2019-04-07T14:26:10.325Z,10.70
2019-04-07T14:28:56.655Z,10.45
2019-04-07T14:31:26.940Z,9.28
2019-04-07T14:34:13.986Z,10.15
2019-04-07T14:36:43.988Z,9.98
2019-04-07T14:39:17.655Z,9.10
2019-04-07T14:42:07.452Z,10.88
2019-04-07T14:44:40.156Z,9.00
2019-04-07T14:47:22.565Z,8.98
2019-04-07T14:50:04.891Z,7.87
2019-04-07T14:52:34.930Z,9.55
2019-04-07T14:55:20.680Z,9.18
2019-04-07T14:58:00.165Z,7.55
2019-04-07T15:00:42.794Z,9.33
2019-04-07T15:03:11.368Z,10.45
2019-04-07T15:05:45.013Z,9.28
2019-04-07T15:08:15.247Z,10.20
2019-04-07T15:10:53.971Z,9.48
2019-04-07T15:13:29.419Z,9.70
2019-04-07T15:15:58.336Z,10.08
2019-04-07T15:18:27.526Z,12.80
2019-04-07T15:20:56.137Z,13.80
2019-04-07T15:23:25.066Z,13.62
2019-04-07T15:25:53.426Z,14.40
2019-04-07T15:28:22.564Z,12.68
2019-04-07T15:30:51.709Z,14.25
2019-04-07T15:33:21.016Z,13.95
2019-04-07T15:35:50.507Z,15.10
2019-04-07T15:38:22.982Z,14.85
2019-04-07T15:40:49.500Z,15.03
2019-04-07T15:43:17.811Z,14.75
2019-04-07T15:45:46.887Z,12.78
2019-04-07T15:48:17.049Z,14.40
2019-04-07T15:50:45.505Z,14.75
2019-04-07T15:53:15.329Z,14.93
2019-04-07T15:55:51.036Z,13.08
2019-04-07T15:58:14.966Z,13.95
2019-04-07T16:00:45.154Z,13.85
2019-04-07T16:03:15.708Z,14.43
2019-04-07T16:05:46.341Z,17.80
2019-04-07T16:08:14.851Z,14.38
2019-04-07T16:10:43.237Z,14.43
2019-04-07T16:13:11.788Z,14.98
2019-04-07T16:15:59.665Z,13.90
2019-04-07T16:18:28.511Z,15.40
2019-04-07T16:20:57.458Z,14.78
2019-04-07T16:23:26.217Z,13.75
2019-04-07T16:25:57.520Z,12.13
2019-04-07T16:28:24.689Z,14.45
2019-04-07T16:30:53.000Z,13.25
2019-04-07T16:33:21.736Z,12.70
2019-04-07T16:35:53.797Z,12.28
2019-04-07T16:38:20.622Z,13.38
2019-04-07T16:40:50.200Z,12.10
2019-04-07T16:43:19.075Z,13.03
2019-04-07T16:45:48.569Z,11.28
2019-04-07T16:48:16.982Z,12.98
2019-04-07T16:50:46.256Z,12.33
2019-04-07T16:53:16.277Z,12.40
2019-04-07T16:55:48.928Z,13.18
2019-04-07T16:58:14.632Z,13.10
2019-04-07T17:00:42.847Z,12.43
2019-04-07T17:03:27.735Z,12.40
2019-04-07T17:05:59.037Z,12.33
2019-04-07T17:08:28.609Z,12.07
2019-04-07T17:10:56.202Z,11.90
2019-04-07T17:13:35.608Z,13.05
2019-04-07T17:15:55.259Z,12.00
2019-04-07T17:18:37.116Z,11.65
2019-04-07T17:21:15.786Z,11.20
2019-04-07T17:23:45.356Z,11.80
2019-04-07T17:26:15.588Z,11.60
2019-04-07T17:28:45.975Z,11.50
2019-04-07T17:31:14.254Z,12.10
2019-04-07T17:33:42.744Z,11.20
2019-04-07T17:36:15.443Z,13.08
2019-04-07T17:38:51.968Z,12.18
2019-04-07T17:41:21.183Z,11.78
2019-04-07T17:43:54.418Z,13.05
2019-04-07T17:46:36.124Z,12.47
2019-04-07T17:49:09.947Z,12.07
2019-04-07T17:51:43.853Z,12.60
2019-04-07T17:54:29.063Z,13.18
2019-04-07T17:57:01.179Z,11.90
2019-04-07T17:59:48.139Z,12.60
2019-04-07T18:02:29.330Z,11.33
2019-04-07T18:05:14.802Z,12.30
2019-04-07T18:08:01.826Z,11.20
2019-04-07T18:10:48.692Z,12.10
2019-04-07T18:13:41.960Z,12.35
2019-04-07T18:16:06.826Z,11.73
2019-04-07T18:18:56.254Z,11.83
2019-04-07T18:21:31.411Z,12.60
2019-04-07T18:24:18.092Z,12.20
2019-04-07T18:26:54.859Z,13.28
2019-04-07T18:29:40.050Z,12.85
2019-04-07T18:32:16.580Z,13.18
2019-04-07T18:34:49.647Z,13.05
2019-04-07T18:37:20.403Z,12.53
2019-04-07T18:40:05.627Z,12.78
2019-04-07T18:42:41.411Z,14.03
2019-04-07T18:45:15.996Z,12.90
2019-04-07T18:47:45.998Z,13.95
2019-04-07T18:50:36.978Z,13.65
2019-04-07T18:53:22.176Z,13.22
2019-04-07T18:55:52.519Z,14.25
2019-04-07T18:58:25.729Z,14.68
2019-04-07T19:01:13.636Z,14.80
2019-04-07T19:03:53.369Z,14.33
2019-04-07T19:06:21.344Z,14.30
2019-04-07T19:08:55.051Z,14.47
2019-04-07T19:11:30.031Z,13.90
2019-04-07T19:14:31.677Z,14.25
2019-04-07T19:16:55.433Z,13.22
2019-04-07T19:19:32.215Z,14.05
2019-04-07T19:22:11.169Z,13.95
2019-04-07T19:24:57.891Z,13.35
2019-04-07T19:27:43.216Z,14.83
2019-04-07T19:30:19.393Z,14.93
2019-04-07T19:32:52.666Z,14.20
2019-04-07T19:35:40.899Z,14.18
2019-04-07T19:38:09.488Z,13.48
2019-04-07T19:40:51.437Z,13.65
2019-04-07T19:43:30.334Z,14.07
2019-04-07T19:46:14.643Z,14.80
2019-04-07T19:48:44.952Z,14.73
2019-04-07T19:51:15.500Z,14.25
2019-04-07T19:54:00.532Z,14.75
2019-04-07T19:59:26.794Z,15.20
2019-04-07T20:02:05.533Z,15.23
2019-04-07T20:04:35.734Z,16.42
2019-04-07T20:07:14.582Z,15.70
2019-04-07T20:09:47.811Z,13.68
2019-04-07T20:12:34.621Z,12.53
2019-04-07T20:15:16.061Z,12.78
2019-04-07T20:17:50.551Z,13.95
2019-04-07T20:20:35.878Z,13.18
2019-04-07T20:23:11.998Z,14.55
2019-04-07T20:25:46.346Z,13.80
2019-04-07T20:28:19.794Z,13.95
2019-04-07T20:30:59.670Z,12.13
2019-04-07T20:33:34.309Z,13.75
2019-04-07T20:36:14.820Z,13.13
2019-04-07T20:38:59.283Z,13.20
2019-04-07T20:41:34.256Z,13.70
2019-04-07T20:44:19.656Z,14.03
2019-04-07T20:46:56.986Z,13.15
2019-04-07T20:49:40.298Z,13.30
2019-04-07T20:52:26.526Z,14.05
2019-04-07T20:55:13.526Z,13.70
2019-04-07T20:58:13.153Z,13.45
2019-04-07T21:00:37.186Z,15.53
2019-04-07T21:03:17.159Z,13.40
2019-04-07T21:05:37.829Z,13.62
2019-04-07T21:08:14.472Z,12.80
2019-04-07T21:10:56.555Z,13.35
2019-04-07T21:13:43.313Z,12.00
2019-04-07T21:16:23.826Z,13.45
2019-04-07T21:19:04.145Z,12.85
2019-04-07T21:21:43.293Z,13.48
2019-04-07T21:24:18.229Z,12.90
2019-04-07T21:27:03.799Z,13.62
2019-04-07T21:29:45.597Z,14.15
2019-04-07T21:32:29.977Z,11.57
2019-04-07T21:35:12.934Z,13.65
2019-04-07T21:37:51.969Z,13.10
2019-04-07T21:40:28.650Z,12.60
2019-04-07T21:43:04.698Z,12.75
2019-04-07T21:45:45.694Z,13.05
2019-04-07T21:48:30.606Z,12.33
2019-04-07T21:51:15.358Z,12.93
2019-04-07T21:53:44.281Z,12.23
2019-04-07T21:56:17.979Z,13.13
2019-04-07T22:01:30.431Z,12.43
2019-04-07T22:04:21.079Z,11.73
2019-04-07T22:06:58.745Z,11.30
2019-04-07T22:09:28.898Z,13.13
2019-04-07T22:11:58.005Z,11.28
2019-04-07T22:14:28.394Z,11.30
2019-04-07T22:16:56.867Z,12.78
2019-04-07T22:19:25.250Z,11.65
2019-04-07T22:21:56.539Z,11.73
2019-04-07T22:24:23.439Z,11.53
2019-04-07T22:26:51.670Z,12.58
2019-04-07T22:29:20.371Z,13.18
2019-04-07T22:31:51.363Z,12.93
2019-04-07T22:34:20.640Z,13.03
2019-04-07T22:36:49.642Z,13.98
2019-04-07T22:39:18.446Z,12.98
2019-04-07T22:41:48.290Z,12.03
2019-04-07T22:44:19.932Z,11.85
2019-04-07T22:46:49.533Z,12.58
2019-04-07T22:49:17.637Z,13.05
2019-04-07T22:51:47.178Z,11.95
2019-04-07T22:54:16.712Z,11.43
2019-04-07T22:56:45.189Z,11.28
2019-04-07T22:59:13.451Z,11.38
2019-04-07T23:01:41.677Z,10.90
2019-04-07T23:04:10.767Z,10.23
2019-04-07T23:06:39.109Z,10.93
2019-04-07T23:09:07.896Z,10.50
2019-04-07T23:11:36.314Z,11.48
2019-04-07T23:14:04.539Z,9.68
2019-04-07T23:16:32.857Z,11.00
2019-04-07T23:19:01.104Z,12.13
2019-04-07T23:21:29.939Z,10.72
2019-04-07T23:23:58.272Z,11.95
2019-04-07T23:26:26.526Z,10.93
2019-04-07T23:28:54.743Z,11.28
2019-04-07T23:31:23.615Z,10.60
2019-04-07T23:33:52.274Z,10.70
2019-04-07T23:36:20.615Z,10.78
2019-04-07T23:38:49.607Z,10.23
2019-04-07T23:41:18.172Z,12.20
2019-04-07T23:43:46.638Z,12.28
2019-04-07T23:46:23.942Z,13.13
2019-04-07T23:48:47.590Z,11.22
2019-04-07T23:51:16.452Z,11.25
2019-04-07T23:54:07.436Z,11.20
2019-04-07T23:56:35.991Z,12.18
2019-04-07T23:59:04.209Z,11.88
